Magog, Canada
Current Conditions -  °F | °C
As of 8:35 PM on Wednesday 22 Oct 2014 (Local Time) from KEFK Reporting Station
Overcast Overcast  
Wind Chill: 43°   Ceiling: 3500
Heat Index: 48°   Visibility: 10mi
Dew Point: 39°   Wind: 12mph
Humidity: 71%   Direction: 360°N
Pressure: 30.15"   Gusts: NA
Location:  45.26°N, 72.15°W
Report Text: KEFK 230035Z AUTO 36010KT 10SM OVC035 09/04 A3015 RMK AO2 T00880038
Loading
Personal Weather Stations






























Interactive Weather Map
Tropical Storm Tracking
New forecast layout! Learn more

10-Day Weather Forecast

Advertisements
Track Severe Weather on mobile